KLYV

Quentin Aanenson Field Airport

Luverne, Minnesota, USA
METAR KLYV 140036Z AUTO 00000KT 10SM CLR M01/M03 A3015 RMK AO2
Observed Flight Rules
Dec-14 @ 00:36 UTC (8 minutes ago) Visual Flight Rules
Visibility Clouds
10 miles
  • Clear skies
Temperatures Readings
Current -1°C / 30°F
Dewpoint -3°C / 27°F
Humidity 86%
Altimeter 30.15" Hg
Pressure 1021 hPa
Elevation 436
METAR KLYV 140036Z AUTO 00000KT 10SM CLR M01/M03 A3015 RMK AO2
Observed Flight Rules
Dec-14 @ 00:36 UTC
(8 minutes ago)
VFR
Clouds
  • Clear skies
Temperature Dewpoint
-1°C / 30°F -3°C / 27°F
Humidity Altimeter Pressure
86% 30.15" Hg 1021 hPa